KPRC/PRC METAR and TAF weather

Enter ICAO airport designator
Station Type Date Time Source
KPRC METAR 2021/07/26 14:53 UTC NOAA

KPRC 261453Z 13006KT 10SM SCT025 19/15 A3022 RMK AO2 SLP160 T01940150 53006


Station Type Date Time Source
KPRC Decoded METAR 2021/07/26 14:53 UTC NOAA

PRESCOTT LOVE FIELD, AZ, United States (KPRC) 34-39N 112-25W 1524M
Jul 26, 2021 - 10:53 AM EDT / 2021.07.26 1453 UTC
Wind: from the SE (130 degrees) at 7 MPH (6 KT):0
Visibility: 10 mile(s):0
Sky conditions: partly cloudy
Temperature: 66.9 F (19.4 C)
Dew Point: 59.0 F (15.0 C)
Relative Humidity: 75%
Pressure (altimeter): 30.22 in. Hg (1023 hPa)
Pressure tendency: 0.02 inches (0.6 hPa) higher than three hours ago
ob: KPRC 261453Z 13006KT 10SM SCT025 19/15 A3022 RMK AO2 SLP160 T01940150 53006
cycle: 15

Station Type Date Time Source
KPRC TAF 2021/07/26 12:36 UTC NOAA

TAF KPRC 261133Z 2612/2712 VRB04KT P6SM SCT025
FM261900 15008KT P6SM VCTS FEW050CB BKN110
FM262300 20008KT P6SM FEW050 SCT200

Example: see airport list